Airfield :







YOU CAN JOIN US ON...

 
LOGIN :

Register | Disclaimer

   EN    FR    IT 

 









Legend :    VFR   Marginal VFR   IFR   Intensive IFR   Very Intensive IFR
Visi :
Ceiling :
>= 8 km
>= 3000ft
5 to 8 km
1000 to 3000 ft
1500m to 5 km
500 to 1000 ft
800 to 1500m
200 to 500 ft
< 800m
< 200 ft
Symbols :   Thunderstorms  Fog  Heavy snow  Heavy precipitations  Wind > 20 kt






- Airport Elevation : 76 ft
- IATA code : PWM


KPWM - Portland International Jetport

CURRENT METAR :
  • 151251Z 25015G24KT 10SM FEW120 BKN250 07/M02 A2927 RMK AO2 SLP913 T00671022

EXPIRED METARs :
  • 151151Z 25013G19KT 10SM SCT120 06/M02 A2925 RMK AO2 SLP904 70186 T00611017 10122 20050 53031
  • 151051Z 23013KT 10SM BKN150 06/M01 A2921 RMK AO2 SLP892 T00561011

TAF KPWM
Valid from the 15 at 13:00 until the 16 at 12:00 UTC


151240Z 1513/1612 25013G19KT P6SM SCT120
FM151600 26024G34KT P6SM SCT250
FM160300 27014G20KT P6SM SKC
FM160600 27011KT P6SM SKC



MET'MAP, your aeronautical weather chart ! - Copyright ORBIFLY December 2007 - Disclaimer

ORBIFLY MET'MAP TEAM :

Programming & Development : Alexandra Zaïnal
Concept & original design : Baudouin d'Aumeries
Assistance for programming : Marc-Olivier Méhu
Technical & hardware support : Manuel Goepfert

Contact : metmap@orbifly.com




SOURCES & CREDITS :

   NOAA